KEFD/EFD METAR and TAF weather

Enter ICAO airport designator
Station Type Date Time Source
KEFD METAR 2021/04/18 00:50 UTC NOAA

KEFD 180050Z 35009G15KT 10SM SCT012 SCT030 BKN100 16/11 A3000


Station Type Date Time Source
KEFD Decoded METAR 2021/04/18 00:50 UTC NOAA

Houston / Ellington, TX, United States (KEFD) 29-36N 095-10W
Apr 17, 2021 - 08:50 PM EDT / 2021.04.18 0050 UTC
Wind: from the N (350 degrees) at 10 MPH (9 KT) gusting to 17 MPH (15 KT):0
Visibility: 10 mile(s):0
Sky conditions: mostly cloudy
Temperature: 60 F (16 C)
Dew Point: 51 F (11 C)
Relative Humidity: 72%
Pressure (altimeter): 30 in. Hg (1015 hPa)
ob: KEFD 180050Z 35009G15KT 10SM SCT012 SCT030 BKN100 16/11 A3000
cycle: 1

Station Type Date Time Source
KEFD TAF 2021/04/17 20:14 UTC NOAA

TAF KEFD 172000Z 1720/1902 03012G18KT 6000 -SHRA BKN030 BKN060 OVC100 QNH2995INS
TEMPO 1720/1722 35025G35KT
BECMG 1723/1724 36010G15KT 6000 -SHRA OVC004 QNH2999INS
BECMG 1803/1804 36010G15KT 8000 BR BKN006 QNH3006INS
BECMG 1805/1806 36010G15KT 8000 BR FEW006 BKN050 QNH3007INS
BECMG 1808/1809 34009KT 8000 BR SCT006 BKN070 QNH3004INS
BECMG 1811/1812 33006KT 8000 BR BKN018 QNH3002INS
BECMG 1814/1815 36009KT 9999 NSW SCT150 QNH3004INS TX19/1720Z TN11/1811Z

Example: see airport list